• Join FlightAware (Why Join?)
  • Login
  • US Flag 
08:09AM EDT


 

Airport Tracker/Info


-or-


 

Live Flight TrackerFlight Track Log ✈ SWA279 ✈ 18-Apr-2013 ✈ KHOU - KLAX

Flight Track Log - Related Links

Times and Time Zones

All times are in EDT time to prevent confusion due to time zone crossing. See the SWA279 flight status page for this flight to view local times or setup timezone preferences in your user account.

Time Position Orientation Groundspeed Altitude Reporting Facility
EDT Latitude Longitude Course Direction KTS MPH feet Rate Location/Type
04:07PM 29.6544 -95.2917 310° West 150 173 1,200  Level Houston Center
04:09PM 29.7022 -95.3583 310° West 220 253 3,900 2,580 Climbing Houston Center
04:10PM 29.7611 -95.4231 316° Northwest 262 302 7,600 2,880 Climbing Houston Center
04:11PM 29.8394 -95.5003 319° Northwest 313 360 10,200 2,280 Climbing Houston Center
04:12PM 29.8544 -95.5753 283° West 292 336 12,700 2,760 Climbing Houston Center
04:13PM 29.8669 -95.6644 279° West 285 328 15,800 1,800 Climbing Houston Center
04:14PM 29.8797 -95.7681 278° West 339 390 16,500 1,740 Climbing Houston Center
04:15PM 29.8981 -95.9081 279° West 371 427 19,500 2,280 Climbing Houston Center
04:16PM 29.9144 -96.0353 278° West 386 444 21,300 1,680 Climbing Houston Center
04:17PM 29.9306 -96.1617 278° West 399 459 23,000 1,440 Climbing Houston Center
04:18PM 29.9417 -96.2878 276° West 398 458 24,400 1,680 Climbing Houston Center
04:19PM 29.9475 -96.4133 273° West 396 456 26,600 1,920 Climbing Houston Center
04:20PM 29.9550 -96.5375 274° West 391 450 28,400 1,800 Climbing Houston Center
04:21PM 29.9808 -96.6825 282° West 393 452 30,400 1,740 Climbing Houston Center
04:22PM 30.0064 -96.8008 284° West 386 444 32,100 1,680 Climbing Houston Center
04:23PM 30.0303 -96.9164 283° West 375 432 33,900 1,500 Climbing Houston Center
04:24PM 30.0536 -97.0297 283° West 368 423 35,300 960 Climbing Houston Center
04:25PM 30.0761 -97.1419 283° West 363 418 36,000 300 Climbing Houston Center
04:26PM 30.1044 -97.2750 284° West 362 417 36,000  Level Houston Center
04:27PM 30.1278 -97.3886 283° West 363 418 36,000  Level Houston Center
04:28PM 30.1508 -97.5028 283° West 360 414 36,000  Level Houston Center
04:30PM 30.1733 -97.6150 283° West 355 409 36,000  Level Houston Center
04:31PM 30.1956 -97.7294 283° West 359 413 36,000  Level Houston Center
04:32PM 30.2186 -97.8428 283° West 358 412 36,000  Level Houston Center
04:33PM 30.2450 -97.9758 283° West 354 407 36,000  Level Houston Center
04:34PM 30.2678 -98.0900 283° West 361 415 36,000  Level Houston Center
04:35PM 30.2897 -98.2028 283° West 361 415 36,000  Level Houston Center
04:36PM 30.3117 -98.3156 283° West 357 411 36,000  Level Houston Center
04:37PM 30.3347 -98.4297 283° West 359 413 36,000  Level Houston Center
04:38PM 30.3550 -98.5414 282° West 353 406 36,000  Level Houston Center
04:39PM 30.3783 -98.6578 283° West 358 412 36,000  Level Houston Center
04:40PM 30.3992 -98.7686 282° West 357 411 36,000  Level Houston Center
04:41PM 30.4256 -98.9000 283° West 357 411 36,000  Level Houston Center
04:42PM 30.4472 -99.0128 283° West 356 410 36,000  Level Houston Center
04:43PM 30.4703 -99.1281 283° West 357 411 36,000  Level Houston Center
04:44PM 30.4964 -99.2381 285° West 355 409 36,000  Level Houston Center
04:45PM 30.5200 -99.3483 284° West 354 407 36,000  Level Houston Center
04:46PM 30.5436 -99.4583 284° West 353 406 36,000  Level Houston Center
04:47PM 30.5664 -99.5681 284° West 351 404 36,000  Level Houston Center
04:48PM 30.5942 -99.6981 284° West 347 399 36,000  Level Houston Center
04:49PM 30.6181 -99.8067 284° West 347 399 36,000  Level Houston Center
04:50PM 30.6406 -99.9144 284° West 346 398 36,000  Level Houston Center
04:51PM 30.6636 -100.0211 284° West 344 396 36,000  Level Houston Center
04:52PM 30.6856 -100.1292 283° West 344 396 36,000  Level Houston Center
04:53PM 30.7117 -100.2569 283° West 342 394 36,000  Level Houston Center
04:54PM 30.7342 -100.3647 284° West 347 399 36,000  Level Houston Center
04:55PM 30.7578 -100.4728 284° West 350 403 36,000  Level Houston Center
04:56PM 30.7792 -100.5789 283° West 346 398 36,000  Level Houston Center
04:57PM 30.8011 -100.6861 283° West 345 397 36,000  Level Houston Center
04:59PM 30.8275 -100.8139 284° West 345 397 36,000  Level Houston Center
05:00PM 30.8489 -100.9208 283° West 342 394 36,000  Level Houston Center
05:01PM 30.8700 -101.0264 283° West 337 388 36,000  Level Houston Center
05:02PM 30.8903 -101.1344 282° West 342 394 36,000  Level Houston Center
05:03PM 30.9142 -101.2378 285° West 335 386 36,000  Level Houston Center
05:04PM 30.9358 -101.3483 283° West 336 387 36,000  Level Houston Center
05:04PM 30.9417 -101.3906 279° West 337 388 36,000  Level Albuquerque Center
05:05PM 30.9633 -101.4964 283° West 337 388 36,000  Level Albuquerque Center
05:06PM 30.9836 -101.6031 283° West 337 388 36,000  Level Albuquerque Center
05:07PM 31.0094 -101.7294 283° West 336 387 36,000  Level Albuquerque Center
05:08PM 31.0300 -101.8333 283° West 333 383 36,000  Level Albuquerque Center
05:09PM 31.0503 -101.9389 283° West 333 383 36,000  Level Albuquerque Center
05:10PM 31.0703 -102.0447 282° West 335 386 36,000  Level Albuquerque Center
05:11PM 31.0906 -102.1467 283° West 325 374 36,000  Level Albuquerque Center
05:12PM 31.1108 -102.2497 283° West 325 374 36,000 480 Level Albuquerque Center
05:13PM 31.1300 -102.3539 282° West 328 377 37,100 960 Climbing Albuquerque Center
05:14PM 31.1542 -102.4794 283° West 330 380 38,000 420 Climbing Albuquerque Center
05:15PM 31.1753 -102.5922 282° West 334 384 38,000  Level Albuquerque Center
05:16PM 31.1958 -102.6986 283° West 335 386 38,000  Level Albuquerque Center
05:17PM 31.2144 -102.8050 282° West 335 386 38,000  Level Albuquerque Center
05:19PM 31.2353 -102.9119 283° West 338 389 38,000  Level Albuquerque Center
05:20PM 31.2550 -103.0189 282° West 336 387 38,000  Level Albuquerque Center
05:21PM 31.2750 -103.1253 282° West 336 387 38,000  Level Albuquerque Center
05:22PM 31.2967 -103.2542 281° West 337 388 38,000  Level Albuquerque Center
05:23PM 31.3186 -103.3597 284° West 335 386 38,000  Level Albuquerque Center
05:24PM 31.3367 -103.4658 281° West 334 384 38,000  Level Albuquerque Center
05:25PM 31.3550 -103.5717 281° West 333 383 38,000  Level Albuquerque Center
05:26PM 31.3739 -103.6778 282° West 333 383 38,000  Level Albuquerque Center
05:27PM 31.3933 -103.7864 282° West 336 387 38,000  Level Albuquerque Center
05:28PM 31.4128 -103.8950 282° West 339 390 38,000  Level Albuquerque Center
05:29PM 31.4392 -104.0267 283° West 344 396 38,000  Level Albuquerque Center
05:30PM 31.4586 -104.1358 282° West 346 398 38,000  Level Albuquerque Center
05:31PM 31.4772 -104.2461 281° West 346 398 38,000  Level Albuquerque Center
05:32PM 31.4972 -104.3575 282° West 348 400 38,000  Level Albuquerque Center
05:33PM 31.5161 -104.4708 281° West 351 404 38,000  Level Albuquerque Center
05:34PM 31.5394 -104.6047 282° West 352 405 38,000  Level Albuquerque Center
05:35PM 31.5578 -104.7136 281° West 349 402 38,000  Level Albuquerque Center
05:36PM 31.5761 -104.8214 281° West 345 397 38,000  Level Albuquerque Center
05:37PM 31.5942 -104.9283 281° West 339 390 38,000  Level Albuquerque Center
05:38PM 31.6125 -105.0358 281° West 339 390 38,000  Level Albuquerque Center
05:39PM 31.6353 -105.1667 282° West 343 395 38,000  Level Albuquerque Center
05:40PM 31.6528 -105.2750 281° West 343 395 38,000  Level Albuquerque Center
05:41PM 31.6703 -105.3883 280° West 352 405 38,000  Level Albuquerque Center
05:42PM 31.6964 -105.4972 286° West 349 402 38,000  Level Albuquerque Center
05:43PM 31.7269 -105.6061 288° West 352 405 38,000  Level Albuquerque Center
05:44PM 31.7572 -105.7164 288° West 354 407 38,000  Level Albuquerque Center
05:45PM 31.7931 -105.8494 288° West 357 411 38,000  Level Albuquerque Center
05:46PM 31.8225 -105.9597 287° West 355 409 38,000  Level Albuquerque Center
05:47PM 31.8522 -106.0694 288° West 354 407 38,000  Level Albuquerque Center
05:49PM 31.8819 -106.1783 288° West 351 404 38,000  Level Albuquerque Center
05:50PM 31.9128 -106.2894 288° West 356 410 38,000  Level Albuquerque Center
05:51PM 31.9422 -106.4022 287° West 359 413 38,000  Level Albuquerque Center
05:52PM 31.9789 -106.5372 288° West 360 414 38,000  Level Albuquerque Center
05:53PM 32.0089 -106.6494 288° West 360 414 38,000  Level Albuquerque Center
05:54PM 32.0389 -106.7617 288° West 360 414 38,000  Level Albuquerque Center
05:55PM 32.0678 -106.8747 287° West 359 413 38,000  Level Albuquerque Center
05:56PM 32.0983 -106.9889 288° West 363 418 38,000  Level Albuquerque Center
05:57PM 32.1267 -107.1033 286° West 363 418 38,000  Level Albuquerque Center
05:58PM 32.1572 -107.2181 287° West 363 418 38,000  Level Albuquerque Center
05:59PM 32.1889 -107.3514 286° West 365 420 38,000  Level Albuquerque Center
06:00PM 32.2164 -107.4658 286° West 365 420 38,000  Level Albuquerque Center
06:01PM 32.2486 -107.5867 288° West 362 417 38,000  Level Albuquerque Center
06:02PM 32.2775 -107.7011 287° West 362 417 38,000  Level Albuquerque Center
06:03PM 32.3072 -107.8147 287° West 362 417 38,000  Level Albuquerque Center
06:04PM 32.3347 -107.9264 286° West 355 409 38,000  Level Albuquerque Center
06:05PM 32.3625 -108.0386 286° West 356 410 38,000  Level Albuquerque Center
06:06PM 32.3964 -108.1742 287° West 357 411 38,000  Level Albuquerque Center
06:07PM 32.4247 -108.2864 287° West 356 410 38,000  Level Albuquerque Center
06:08PM 32.4539 -108.4075 286° West 359 413 38,000  Level Albuquerque Center
06:09PM 32.4819 -108.5217 286° West 363 418 38,000  Level Albuquerque Center
06:10PM 32.5108 -108.6361 287° West 364 419 38,000  Level Albuquerque Center
06:11PM 32.5386 -108.7528 286° West 367 422 38,000  Level Albuquerque Center
06:12PM 32.5664 -108.8686 286° West 368 423 38,000  Level Albuquerque Center
06:13PM 32.6003 -109.0111 286° West 373 429 38,000  Level Albuquerque Center
06:14PM 32.6294 -109.1292 286° West 374 430 38,000  Level Albuquerque Center
06:15PM 32.6575 -109.2472 286° West 371 427 38,000  Level Albuquerque Center
06:16PM 32.6844 -109.3639 285° West 368 423 38,000  Level Albuquerque Center
06:17PM 32.7131 -109.4808 286° West 369 425 38,000  Level Albuquerque Center
06:18PM 32.7403 -109.5975 286° West 369 425 38,000  Level Albuquerque Center
06:20PM 32.7728 -109.7381 285° West 369 425 38,000  Level Albuquerque Center
06:21PM 32.8011 -109.8550 286° West 370 426 38,000  Level Albuquerque Center
06:22PM 32.8261 -109.9719 284° West 368 423 38,000  Level Albuquerque Center
06:23PM 32.8569 -110.0897 287° West 373 429 38,000  Level Albuquerque Center
06:24PM 32.8856 -110.2072 286° West 374 430 38,000  Level Albuquerque Center
06:25PM 32.9164 -110.3472 285° West 369 425 38,000  Level Albuquerque Center
06:26PM 32.9447 -110.4656 286° West 372 428 38,000  Level Albuquerque Center
06:27PM 32.9700 -110.5850 284° West 375 432 38,000  Level Albuquerque Center
06:28PM 33.0000 -110.7136 286° West 377 434 38,000  Level Albuquerque Center
06:29PM 33.0269 -110.8344 285° West 378 435 38,000  Level Albuquerque Center
06:30PM 33.0531 -110.9550 285° West 376 433 38,000  Level Albuquerque Center
06:31PM 33.0811 -111.0756 286° West 377 434 38,000  Level Albuquerque Center
06:32PM 33.1131 -111.2222 285° West 381 438 38,000  Level Albuquerque Center
06:33PM 33.1403 -111.3461 285° West 385 443 38,000  Level Albuquerque Center
06:34PM 33.1672 -111.4700 285° West 386 444 38,000  Level Albuquerque Center
06:35PM 33.1939 -111.5931 285° West 383 441 38,000  Level Albuquerque Center
06:36PM 33.2206 -111.7172 284° West 385 443 38,000  Level Albuquerque Center
06:37PM 33.2472 -111.8406 285° West 383 441 38,000 -60 Level Albuquerque Center
06:38PM 33.2739 -111.9625 285° West 380 437 37,900  Descending Albuquerque Center
06:39PM 33.2997 -112.0842 284° West 378 435 38,000  Climbing Albuquerque Center
06:40PM 33.3297 -112.2303 284° West 377 434 38,000  Level Albuquerque Center
06:41PM 33.3556 -112.3533 284° West 379 436 38,000  Level Albuquerque Center
06:42PM 33.3822 -112.4775 284° West 383 441 38,000  Level Albuquerque Center
06:43PM 33.4078 -112.6044 284° West 387 445 38,000  Level Albuquerque Center
06:44PM 33.4336 -112.7306 284° West 389 448 38,000  Level Albuquerque Center
06:45PM 33.4628 -112.8558 286° West 391 450 38,000  Level Albuquerque Center
06:46PM 33.5150 -112.9972 294° West 391 450 38,000  Level Albuquerque Center
06:47PM 33.5569 -113.1119 294° West 383 441 38,000  Level Albuquerque Center
06:48PM 33.5989 -113.2314 293° West 386 444 38,000  Level Albuquerque Center
06:50PM 33.6406 -113.3506 293° West 385 443 38,000  Level Albuquerque Center
06:51PM 33.6825 -113.4664 294° West 381 438 38,000  Level Albuquerque Center
06:52PM 33.7236 -113.5831 293° West 380 437 38,000  Level Albuquerque Center
06:53PM 33.7717 -113.7217 293° West 377 434 38,000  Level Albuquerque Center
06:54PM 33.8119 -113.8378 293° West 375 432 38,000  Level Albuquerque Center
06:55PM 33.8425 -113.9572 287° West 383 441 38,000  Level Albuquerque Center
06:56PM 33.8639 -114.0808 282° West 383 441 38,000  Level Albuquerque Center
06:57PM 33.8822 -114.2064 280° West 381 438 38,000  Level Albuquerque Center
06:58PM 33.9047 -114.3508 281° West 380 437 38,000  Level Albuquerque Center
06:59PM 33.9225 -114.4639 281° West 385 443 38,000  Level Los Angeles Center
07:00PM 33.9447 -114.6144 280° West 382 440 38,000  Level Los Angeles Center
07:01PM 33.9644 -114.7406 281° West 383 441 38,000  Level Los Angeles Center
07:02PM 33.9825 -114.8678 280° West 386 444 38,000  Level Los Angeles Center
07:03PM 34.0014 -114.9969 280° West 390 449 38,000  Level Los Angeles Center
07:04PM 34.0206 -115.1258 280° West 393 452 38,000  Level Los Angeles Center
07:05PM 34.0436 -115.2822 280° West 396 456 38,000  Level Los Angeles Center
07:06PM 34.0622 -115.4133 280° West 399 459 38,000  Level Los Angeles Center
07:07PM 34.0803 -115.5422 280° West 394 453 38,000  Level Los Angeles Center
07:08PM 34.0981 -115.6714 279° West 392 451 38,000  Level Los Angeles Center
07:09PM 34.1069 -115.8022 275° West 392 451 38,000 -300 Level Los Angeles Center
07:10PM 34.0878 -115.9336 260° West 399 459 37,500 -1,800 Descending Los Angeles Center
07:11PM 34.0644 -116.0897 260° West 396 456 34,300 -2,880 Descending Los Angeles Center
07:12PM 34.0450 -116.2225 260° West 403 464 31,600 -2,400 Descending Los Angeles Center
07:13PM 34.0244 -116.3619 260° West 420 483 29,300 -2,280 Descending Los Angeles Center
07:14PM 34.0044 -116.4964 260° West 409 471 27,000 -2,160 Descending Los Angeles Center
07:15PM 33.9942 -116.6250 265° West 391 450 24,900 -2,280 Descending Los Angeles Center
07:16PM 33.9822 -116.7733 264° West 375 432 22,400 -2,220 Descending Los Angeles Center
07:17PM 33.9667 -116.9000 262° West 358 412 20,400 -1,920 Descending Southern California TRACON
07:18PM 33.9667 -117.0167 270° West 343 395 18,500 -1,740 Descending Southern California TRACON
07:19PM 33.9500 -117.1333 260° West 348 400 17,000 -1,080 Descending Southern California TRACON
07:20PM 33.9500 -117.2500 270° West 338 389 16,400 -1,200 Descending Southern California TRACON
07:21PM 33.9333 -117.3500 259° West 341 392 14,800 -1,980 Descending Southern California TRACON
07:22PM 33.9667 -117.4667 289° West 337 388 12,500 -1,800 Descending Southern California TRACON
07:23PM 34.0000 -117.5667 292° West 305 351 11,100 -1,260 Descending Southern California TRACON
07:24PM 34.0333 -117.6500 296° West 328 377 10,000 -960 Descending Southern California TRACON
07:25PM 34.0167 -117.7500 259° West 276 318 9,200 -1,080 Descending Southern California TRACON
07:26PM 34.0000 -117.8500 259° West 274 315 7,900 -1,200 Descending Southern California TRACON
07:27PM 34.0000 -117.9333 270° West 270 311 6,800 -1,140 Descending Southern California TRACON
07:28PM 33.9833 -118.0333 259° West 265 305 5,700 -1,020 Descending Southern California TRACON
07:29PM 33.9833 -118.1167 270° West 260 299 4,800 -960 Descending Southern California TRACON
07:30PM 33.9789 -118.1439 259° West 261 300 4,400 -1,200 Descending Los Angeles Center
07:31PM 33.9714 -118.2203 263° West 241 277 3,100 -1,200 Descending Los Angeles Center
07:32PM 33.9633 -118.2886 262° West 224 258 2,000 -1,020 Descending Los Angeles Center
07:33PM 33.9589 -118.3414 264° West 184 212 1,100 -780 Descending Los Angeles Center
07:34PM 33.9556 -118.3828 264° West 149 171 500 -540 Descending Los Angeles Center
07:35PM 33.9492 -118.4300 261° West 138 159 100 -420 Descending Los Angeles Center
07:37PM 33.9425 -118.4081 90° East  Level Estimated